createdAt,value
2023-05-17T00:03:23.623Z,1.70
2023-05-17T00:07:26.971Z,2.33
2023-05-17T00:11:31.746Z,2.00
2023-05-17T00:15:35.117Z,2.37
2023-05-17T00:19:39.371Z,1.57
2023-05-17T00:23:42.555Z,1.73
2023-05-17T00:27:47.248Z,2.10
2023-05-17T00:31:50.379Z,2.60
2023-05-17T00:35:53.538Z,1.83
2023-05-17T00:39:57.883Z,2.37
2023-05-17T00:44:02.813Z,1.87
2023-05-17T00:48:07.043Z,2.57
2023-05-17T00:52:10.748Z,2.10
2023-05-17T00:56:14.253Z,2.10
2023-05-17T01:00:19.113Z,1.70
2023-05-17T01:04:22.492Z,1.67
2023-05-17T01:08:25.905Z,1.90
2023-05-17T01:12:40.655Z,1.73
2023-05-17T01:16:50.755Z,1.93
2023-05-17T01:20:56.247Z,2.47
2023-05-17T01:25:12.026Z,1.57
2023-05-17T01:29:18.824Z,1.63
2023-05-17T01:33:23.150Z,1.23
2023-05-17T01:37:26.693Z,1.50
2023-05-17T01:41:35.035Z,1.40
2023-05-17T01:45:44.197Z,1.97
2023-05-17T01:49:56.557Z,1.60
2023-05-17T01:54:09.667Z,1.70
2023-05-17T01:58:14.234Z,1.90
2023-05-17T02:02:18.876Z,3.90
2023-05-17T02:06:22.186Z,3.30
2023-05-17T02:10:25.360Z,3.33
2023-05-17T02:14:30.669Z,2.63
2023-05-17T02:18:35.784Z,1.63
2023-05-17T02:22:39.421Z,3.37
2023-05-17T02:26:43.426Z,3.00
2023-05-17T02:30:47.455Z,3.60
2023-05-17T02:34:52.051Z,2.10
2023-05-17T02:38:55.556Z,1.53
2023-05-17T02:42:58.724Z,1.57
2023-05-17T02:47:02.101Z,1.30
2023-05-17T02:51:07.004Z,1.60
2023-05-17T02:55:10.966Z,1.47
2023-05-17T02:59:14.372Z,1.57
2023-05-17T03:03:17.764Z,1.67
2023-05-17T03:07:22.581Z,1.53
2023-05-17T03:11:25.733Z,1.50
2023-05-17T03:15:30.735Z,1.40
2023-05-17T03:19:34.126Z,1.50
2023-05-17T03:23:39.819Z,1.60
2023-05-17T03:27:44.418Z,1.40
2023-05-17T03:31:47.675Z,1.50
2023-05-17T03:35:52.900Z,1.03
2023-05-17T03:39:57.618Z,1.20
2023-05-17T03:44:01.478Z,1.20
2023-05-17T03:48:05.053Z,1.07
2023-05-17T03:52:08.723Z,1.67
2023-05-17T03:56:13.465Z,1.40
2023-05-17T04:00:21.847Z,1.50
2023-05-17T04:04:25.166Z,1.70
2023-05-17T04:08:28.647Z,2.10
2023-05-17T04:12:33.405Z,1.67
2023-05-17T04:16:36.746Z,2.20
2023-05-17T04:20:39.956Z,2.17
2023-05-17T04:24:43.347Z,1.97
2023-05-17T04:28:47.905Z,1.63
2023-05-17T04:32:54.569Z,2.10
2023-05-17T04:36:57.765Z,1.47
2023-05-17T04:41:04.783Z,1.70
2023-05-17T04:45:11.223Z,2.50
2023-05-17T04:49:15.333Z,2.00
2023-05-17T04:53:19.412Z,2.33
2023-05-17T04:57:22.616Z,2.20
2023-05-17T05:01:29.431Z,1.90
2023-05-17T05:05:32.735Z,1.37
2023-05-17T05:09:36.103Z,2.37
2023-05-17T05:13:39.382Z,2.20
2023-05-17T05:17:56.023Z,2.33
2023-05-17T05:21:59.295Z,1.50
2023-05-17T05:26:02.725Z,1.70
2023-05-17T05:30:09.142Z,1.70
2023-05-17T05:34:13.741Z,1.57
2023-05-17T05:38:17.010Z,1.23
2023-05-17T05:42:22.015Z,0.57
2023-05-17T05:46:25.612Z,0.80
2023-05-17T05:50:30.506Z,0.60
2023-05-17T05:54:33.979Z,0.80
2023-05-17T05:58:37.155Z,0.60
2023-05-17T06:02:40.341Z,1.00
2023-05-17T06:06:47.539Z,1.03
2023-05-17T06:10:51.081Z,1.40
2023-05-17T06:14:54.393Z,2.47
2023-05-17T06:18:57.841Z,1.80
2023-05-17T06:23:05.130Z,1.60
2023-05-17T06:27:08.480Z,1.20
2023-05-17T06:31:12.753Z,1.27
2023-05-17T06:35:15.920Z,1.77
2023-05-17T06:39:21.601Z,1.50
2023-05-17T06:43:24.818Z,0.70
2023-05-17T06:47:28.893Z,0.80
2023-05-17T06:51:37.526Z,1.10
2023-05-17T06:55:43.263Z,1.10
2023-05-17T06:59:46.481Z,1.00
2023-05-17T07:03:49.898Z,1.80
2023-05-17T07:07:53.144Z,1.13
2023-05-17T07:11:57.807Z,0.60
2023-05-17T07:16:01.058Z,0.50
2023-05-17T07:20:06.405Z,0.40
2023-05-17T07:24:10.778Z,0.50
2023-05-17T07:28:15.492Z,0.33
2023-05-17T07:32:18.991Z,0.30
2023-05-17T07:36:22.208Z,0.33
2023-05-17T07:40:25.610Z,0.30
2023-05-17T07:44:30.256Z,0.40
2023-05-17T07:48:35.801Z,0.30
2023-05-17T07:52:39.111Z,0.40
2023-05-17T07:56:42.620Z,0.30
2023-05-17T08:00:50.002Z,0.30
2023-05-17T08:04:53.379Z,0.40
2023-05-17T08:08:57.850Z,0.40
2023-05-17T08:13:01.089Z,0.30
2023-05-17T08:17:06.127Z,0.37
2023-05-17T08:21:09.979Z,0.40
2023-05-17T08:25:13.348Z,0.40
2023-05-17T08:29:17.195Z,0.70
2023-05-17T08:33:22.636Z,0.90
2023-05-17T08:37:30.671Z,0.50
2023-05-17T08:41:37.410Z,0.40
2023-05-17T08:45:40.959Z,0.33
2023-05-17T08:49:48.138Z,0.53
2023-05-17T08:53:51.713Z,0.40
2023-05-17T08:57:55.214Z,0.40
2023-05-17T09:01:58.494Z,0.37
2023-05-17T09:06:04.841Z,0.43
2023-05-17T09:10:09.363Z,0.37
2023-05-17T09:14:12.597Z,0.30
2023-05-17T09:18:19.208Z,0.40
2023-05-17T09:22:24.613Z,0.30
2023-05-17T09:26:38.497Z,0.40
2023-05-17T09:30:42.430Z,0.30
2023-05-17T09:34:48.343Z,0.40
2023-05-17T09:38:59.650Z,0.40
2023-05-17T09:43:03.867Z,0.30
2023-05-17T09:47:07.681Z,0.50
2023-05-17T09:51:10.863Z,0.30
2023-05-17T09:55:15.950Z,0.40
2023-05-17T09:59:19.304Z,0.50
2023-05-17T10:03:23.022Z,0.40
2023-05-17T10:07:27.938Z,0.43
2023-05-17T10:11:34.676Z,0.40
2023-05-17T10:15:38.813Z,0.37
2023-05-17T10:19:42.569Z,0.60
2023-05-17T10:23:46.969Z,0.53
2023-05-17T10:27:53.085Z,0.37
2023-05-17T10:31:57.611Z,0.50
2023-05-17T10:36:03.356Z,0.30
2023-05-17T10:40:13.184Z,0.63
2023-05-17T10:44:18.739Z,0.40
2023-05-17T10:48:22.376Z,0.30
2023-05-17T10:52:27.461Z,0.67
2023-05-17T10:56:31.988Z,0.30
2023-05-17T11:00:42.991Z,0.83
2023-05-17T11:04:53.024Z,0.30
2023-05-17T11:09:16.167Z,0.50
2023-05-17T11:13:27.531Z,0.70
2023-05-17T11:17:37.826Z,0.40
2023-05-17T11:21:47.777Z,0.33
2023-05-17T11:25:53.008Z,0.50
2023-05-17T11:29:58.867Z,0.50
2023-05-17T11:34:04.496Z,0.30
2023-05-17T11:38:15.699Z,0.33
2023-05-17T11:42:27.075Z,0.40
2023-05-17T11:46:30.666Z,0.40
2023-05-17T11:50:38.175Z,0.63
2023-05-17T11:54:43.133Z,0.40
2023-05-17T11:58:52.191Z,0.40
2023-05-17T12:02:55.757Z,0.33
2023-05-17T12:07:01.415Z,0.40
2023-05-17T12:11:24.734Z,0.63
2023-05-17T12:15:29.972Z,0.30
2023-05-17T12:19:33.390Z,0.40
2023-05-17T12:23:39.769Z,0.40
2023-05-17T12:27:43.538Z,0.40
2023-05-17T12:31:49.511Z,0.30
2023-05-17T12:35:53.137Z,0.60
2023-05-17T12:39:58.839Z,0.60
2023-05-17T12:44:14.787Z,0.60
2023-05-17T12:48:19.011Z,1.17
2023-05-17T12:52:22.384Z,0.53
2023-05-17T12:56:30.306Z,0.60
2023-05-17T13:00:33.763Z,0.53
2023-05-17T13:04:37.923Z,0.70
2023-05-17T13:08:43.007Z,0.50
2023-05-17T13:12:58.511Z,0.80
2023-05-17T13:17:02.428Z,0.50
2023-05-17T13:21:05.973Z,0.77
2023-05-17T13:25:09.517Z,0.67
2023-05-17T13:29:14.198Z,0.70
2023-05-17T13:33:17.529Z,0.50
2023-05-17T13:37:21.281Z,0.67
2023-05-17T13:41:24.992Z,0.80
2023-05-17T13:45:29.745Z,0.50
2023-05-17T13:49:32.988Z,0.40
2023-05-17T13:53:38.563Z,0.40
2023-05-17T13:57:42.387Z,0.53
2023-05-17T14:01:47.226Z,0.60
2023-05-17T14:05:52.985Z,0.60
2023-05-17T14:09:56.190Z,0.70
2023-05-17T14:14:00.990Z,0.60
2023-05-17T14:18:11.195Z,0.53
2023-05-17T14:22:15.056Z,0.80
2023-05-17T14:26:19.504Z,0.70
2023-05-17T14:30:23.086Z,0.50
2023-05-17T14:34:27.998Z,0.80
2023-05-17T14:38:31.314Z,0.77
2023-05-17T14:42:34.687Z,0.70
2023-05-17T14:46:38.127Z,1.13
2023-05-17T14:50:42.904Z,0.73
2023-05-17T14:54:46.550Z,0.90
2023-05-17T14:58:49.745Z,1.60
2023-05-17T15:02:53.298Z,0.80
2023-05-17T15:06:58.962Z,0.50
2023-05-17T15:11:02.282Z,0.80
2023-05-17T15:15:06.316Z,0.70
2023-05-17T15:19:16.883Z,0.70
2023-05-17T15:23:21.615Z,0.83
2023-05-17T15:27:25.124Z,0.80
2023-05-17T15:31:29.025Z,1.00
2023-05-17T15:35:32.771Z,0.70
2023-05-17T15:39:37.465Z,0.50
2023-05-17T15:43:41.063Z,0.67
2023-05-17T15:47:44.418Z,0.40
2023-05-17T15:51:47.996Z,0.40
2023-05-17T15:55:52.994Z,0.90
2023-05-17T15:59:56.751Z,0.50
2023-05-17T16:04:09.464Z,0.50
2023-05-17T16:08:13.831Z,0.50
2023-05-17T16:12:18.605Z,0.50
2023-05-17T16:16:23.105Z,0.50
2023-05-17T16:20:31.869Z,0.50
2023-05-17T16:24:36.678Z,0.50
2023-05-17T16:28:43.194Z,0.50
2023-05-17T16:32:48.484Z,0.50
2023-05-17T16:36:53.790Z,0.50
2023-05-17T16:40:58.108Z,0.70
2023-05-17T16:45:04.427Z,0.70
2023-05-17T16:49:09.938Z,0.50
2023-05-17T16:53:13.991Z,0.50
2023-05-17T16:57:17.991Z,0.87
2023-05-17T17:01:23.277Z,0.50
2023-05-17T17:05:27.844Z,0.40
2023-05-17T17:09:31.952Z,0.73
2023-05-17T17:13:36.745Z,0.67
2023-05-17T17:17:42.664Z,0.67
2023-05-17T17:21:46.734Z,0.90
2023-05-17T17:25:50.866Z,0.53
2023-05-17T17:29:55.954Z,0.50
2023-05-17T17:34:01.315Z,0.53
2023-05-17T17:38:06.511Z,0.70
2023-05-17T17:42:11.679Z,0.70
2023-05-17T17:46:15.779Z,0.60
2023-05-17T17:50:21.987Z,0.53
2023-05-17T17:54:26.949Z,0.57
2023-05-17T17:58:31.554Z,0.97
2023-05-17T18:02:36.028Z,0.73
2023-05-17T18:06:42.921Z,0.70
2023-05-17T18:10:47.119Z,1.00
2023-05-17T18:14:52.246Z,0.97
2023-05-17T18:19:00.221Z,0.60
2023-05-17T18:23:07.366Z,0.50
2023-05-17T18:27:13.469Z,0.90
2023-05-17T18:31:19.914Z,0.67
2023-05-17T18:35:24.106Z,0.40
2023-05-17T18:39:30.513Z,0.60
2023-05-17T18:43:35.319Z,0.67
2023-05-17T18:47:39.426Z,0.50
2023-05-17T18:51:44.484Z,0.60
2023-05-17T18:55:54.232Z,0.60
2023-05-17T18:59:58.356Z,0.70
2023-05-17T19:04:03.446Z,0.83
2023-05-17T19:08:07.710Z,0.63
2023-05-17T19:12:13.360Z,0.90
2023-05-17T19:16:23.445Z,0.50
2023-05-17T19:20:27.470Z,0.70
2023-05-17T19:24:31.861Z,0.80
2023-05-17T19:28:37.280Z,0.90
2023-05-17T19:32:41.229Z,0.73
2023-05-17T19:36:45.327Z,0.90
2023-05-17T19:40:49.254Z,0.50
2023-05-17T19:44:54.625Z,0.53
2023-05-17T19:48:59.114Z,0.70
2023-05-17T19:53:03.378Z,0.60
2023-05-17T19:57:08.606Z,0.60
2023-05-17T20:01:14.016Z,0.63
2023-05-17T20:05:18.870Z,1.07
2023-05-17T20:09:23.749Z,0.60
2023-05-17T20:13:29.372Z,0.60
2023-05-17T20:17:34.770Z,0.80
2023-05-17T20:21:38.990Z,0.87
2023-05-17T20:25:42.935Z,0.63
2023-05-17T20:29:47.336Z,0.60
2023-05-17T20:33:53.582Z,0.63
2023-05-17T20:37:57.815Z,0.80
2023-05-17T20:42:02.943Z,0.90
2023-05-17T20:46:07.766Z,0.70
2023-05-17T20:50:15.006Z,0.60
2023-05-17T20:54:18.911Z,0.80
2023-05-17T20:58:22.873Z,0.70
2023-05-17T21:02:26.647Z,0.60
2023-05-17T21:06:32.841Z,1.10
2023-05-17T21:10:38.163Z,0.87
2023-05-17T21:14:41.301Z,0.90
2023-05-17T21:18:45.326Z,1.00
2023-05-17T21:22:50.081Z,0.90
2023-05-17T21:26:54.456Z,1.13
2023-05-17T21:30:57.778Z,1.10
2023-05-17T21:35:00.953Z,1.07
2023-05-17T21:39:05.774Z,0.73
2023-05-17T21:43:09.930Z,0.80
2023-05-17T21:47:13.281Z,1.17
2023-05-17T21:51:16.904Z,0.90
2023-05-17T21:55:21.481Z,1.30
2023-05-17T21:59:25.080Z,1.23
2023-05-17T22:03:28.370Z,1.00
2023-05-17T22:07:31.794Z,0.70
2023-05-17T22:11:38.363Z,0.90
2023-05-17T22:15:43.058Z,0.77
2023-05-17T22:19:46.344Z,0.90
2023-05-17T22:23:49.660Z,0.77
2023-05-17T22:27:54.277Z,1.03
2023-05-17T22:31:57.675Z,1.13
2023-05-17T22:36:02.600Z,0.60
2023-05-17T22:40:08.348Z,1.00
2023-05-17T22:44:12.990Z,0.90
2023-05-17T22:48:16.268Z,1.23
2023-05-17T22:52:21.018Z,0.90
2023-05-17T22:56:26.322Z,1.00
2023-05-17T23:00:30.874Z,0.80
2023-05-17T23:04:37.919Z,0.80
2023-05-17T23:08:42.021Z,1.07
2023-05-17T23:12:45.401Z,1.13
2023-05-17T23:16:50.198Z,1.10
2023-05-17T23:20:53.591Z,1.20
2023-05-17T23:24:56.796Z,1.20
2023-05-17T23:29:05.427Z,0.60
2023-05-17T23:33:10.178Z,0.50
2023-05-17T23:37:13.559Z,0.60
2023-05-17T23:41:19.828Z,0.80
2023-05-17T23:45:23.341Z,0.60
2023-05-17T23:49:28.251Z,0.60
2023-05-17T23:53:34.164Z,0.70
2023-05-17T23:57:37.871Z,0.60
